createdAt,value
2022-09-04T00:00:08.720Z,66.56
2022-09-04T00:03:06.380Z,66.23
2022-09-04T00:06:01.001Z,67.73
2022-09-04T00:08:47.155Z,66.38
2022-09-04T00:11:19.018Z,67.75
2022-09-04T00:13:55.353Z,68.91
2022-09-04T00:16:37.493Z,65.17
2022-09-04T00:19:26.812Z,63.71
2022-09-04T00:22:02.059Z,63.83
2022-09-04T00:24:38.456Z,65.21
2022-09-04T00:27:27.154Z,64.46
2022-09-04T00:30:13.821Z,64.61
2022-09-04T00:32:51.752Z,67.00
2022-09-04T00:35:37.976Z,66.81
2022-09-04T00:38:13.973Z,64.53
2022-09-04T00:41:03.970Z,64.15
2022-09-04T00:44:01.315Z,65.42
2022-09-04T00:46:52.173Z,64.62
2022-09-04T00:49:32.138Z,64.25
2022-09-04T00:52:05.881Z,65.90
2022-09-04T00:54:58.840Z,65.64
2022-09-04T00:57:59.575Z,64.65
2022-09-04T01:00:28.995Z,64.62
2022-09-04T01:03:23.903Z,65.65
2022-09-04T01:06:12.507Z,65.54
2022-09-04T01:09:22.392Z,66.39
2022-09-04T01:11:53.143Z,67.63
2022-09-04T01:14:29.647Z,65.39
2022-09-04T01:17:09.478Z,64.79
2022-09-04T01:19:40.029Z,64.19
2022-09-04T01:22:46.668Z,65.10
2022-09-04T01:25:20.049Z,64.50
2022-09-04T01:28:13.612Z,65.30
2022-09-04T01:30:52.188Z,65.01
2022-09-04T01:33:34.665Z,65.36
2022-09-04T01:36:28.073Z,66.50
2022-09-04T01:38:58.705Z,67.51
2022-09-04T01:41:29.386Z,68.54
2022-09-04T01:43:57.470Z,65.87
2022-09-04T01:46:44.013Z,65.46
2022-09-04T01:49:27.055Z,66.07
2022-09-04T01:52:03.218Z,67.13
2022-09-04T01:54:35.283Z,65.33
2022-09-04T01:57:15.086Z,65.48
2022-09-04T02:00:04.700Z,65.89
2022-09-04T02:03:02.393Z,65.12
2022-09-04T02:05:48.465Z,68.06
2022-09-04T02:08:28.431Z,67.31
2022-09-04T02:11:05.259Z,66.37
2022-09-04T02:14:10.775Z,67.00
2022-09-04T02:16:56.440Z,65.39
2022-09-04T02:19:44.581Z,66.44
2022-09-04T02:22:41.998Z,67.84
2022-09-04T02:25:30.607Z,69.19
2022-09-04T02:28:16.654Z,66.62
2022-09-04T02:30:54.310Z,66.19
2022-09-04T02:33:29.594Z,67.49
2022-09-04T02:36:14.753Z,66.33
2022-09-04T02:39:10.377Z,66.59
2022-09-04T02:41:58.321Z,66.90
2022-09-04T02:44:32.324Z,66.50
2022-09-04T02:47:21.823Z,65.97
2022-09-04T02:50:11.077Z,67.73
2022-09-04T02:53:18.429Z,66.56
2022-09-04T02:56:01.808Z,66.77
2022-09-04T02:58:42.358Z,66.26
2022-09-04T03:01:22.474Z,66.60
2022-09-04T03:04:11.125Z,66.18
2022-09-04T03:06:55.103Z,66.25
2022-09-04T03:09:36.481Z,66.94
2022-09-04T03:12:29.559Z,67.33
2022-09-04T03:15:08.246Z,66.87
2022-09-04T03:17:46.602Z,67.39
2022-09-04T03:20:26.738Z,66.76
2022-09-04T03:23:12.012Z,66.60
2022-09-04T03:26:01.100Z,66.89
2022-09-04T03:28:54.798Z,67.25
2022-09-04T03:31:54.555Z,67.50
2022-09-04T03:34:48.945Z,67.59
2022-09-04T03:38:14.101Z,67.26
2022-09-04T03:40:53.924Z,67.39
2022-09-04T03:43:27.874Z,67.52
2022-09-04T03:46:05.837Z,68.58
2022-09-04T03:49:07.829Z,68.19
2022-09-04T03:51:38.883Z,68.10
2022-09-04T03:54:12.558Z,67.24
2022-09-04T03:56:43.446Z,68.08
2022-09-04T03:59:14.148Z,67.75
2022-09-04T04:01:42.397Z,67.57
2022-09-04T04:04:36.239Z,67.78
2022-09-04T04:07:08.651Z,67.51
2022-09-04T04:09:48.569Z,68.69
2022-09-04T04:12:16.119Z,67.22
2022-09-04T04:14:44.038Z,67.15
2022-09-04T04:17:31.554Z,66.81
2022-09-04T04:20:17.892Z,67.53
2022-09-04T04:22:56.715Z,68.80
2022-09-04T04:25:33.678Z,67.41
2022-09-04T04:28:39.139Z,69.26
2022-09-04T04:31:20.276Z,68.99
2022-09-04T04:34:10.223Z,67.33
2022-09-04T04:37:31.902Z,65.19
2022-09-04T04:40:15.115Z,64.86
2022-09-04T04:43:03.742Z,65.04
2022-09-04T04:45:51.674Z,64.53
2022-09-04T04:48:38.631Z,65.04
2022-09-04T04:51:18.643Z,65.17
2022-09-04T04:53:58.558Z,64.71
2022-09-04T04:56:34.090Z,65.91
2022-09-04T04:59:26.971Z,64.15
2022-09-04T05:02:04.858Z,64.43
2022-09-04T05:04:50.958Z,64.75
2022-09-04T05:07:35.604Z,64.16
2022-09-04T05:10:30.312Z,63.38
2022-09-04T05:13:09.468Z,64.45
2022-09-04T05:16:10.293Z,65.52
2022-09-04T05:18:58.155Z,64.70
2022-09-04T05:21:44.625Z,65.41
2022-09-04T05:24:26.183Z,65.66
2022-09-04T05:27:13.032Z,65.19
2022-09-04T05:29:52.719Z,65.11
2022-09-04T05:32:30.747Z,64.33
2022-09-04T05:35:17.315Z,65.56
2022-09-04T05:38:02.363Z,65.72
2022-09-04T05:40:44.211Z,65.03
2022-09-04T05:43:48.215Z,64.12
2022-09-04T05:46:19.002Z,63.97
2022-09-04T05:49:24.272Z,62.91
2022-09-04T05:52:21.244Z,63.72
2022-09-04T05:55:17.026Z,64.00
2022-09-04T05:58:11.034Z,63.12
2022-09-04T06:01:03.416Z,63.73
2022-09-04T06:04:13.226Z,63.10
2022-09-04T06:06:51.576Z,63.90
2022-09-04T06:09:48.637Z,64.78
2022-09-04T06:13:03.957Z,63.18
2022-09-04T06:15:44.886Z,62.63
2022-09-04T06:18:37.930Z,62.11
2022-09-04T06:21:40.398Z,61.35
2022-09-04T06:24:30.808Z,61.00
2022-09-04T06:27:01.504Z,62.48
2022-09-04T06:29:44.497Z,61.76
2022-09-04T06:32:35.843Z,61.20
2022-09-04T06:35:32.002Z,62.84
2022-09-04T06:38:25.417Z,63.24
2022-09-04T06:41:08.694Z,63.57
2022-09-04T06:44:20.746Z,60.72
2022-09-04T06:47:06.338Z,61.79
2022-09-04T06:50:06.111Z,63.15
2022-09-04T06:52:55.996Z,62.72
2022-09-04T06:55:45.855Z,62.34
2022-09-04T06:58:25.531Z,63.10
2022-09-04T07:01:09.027Z,62.23
2022-09-04T07:04:07.706Z,63.97
2022-09-04T07:06:58.614Z,62.61
2022-09-04T07:09:30.983Z,62.25
2022-09-04T07:12:08.087Z,61.03
2022-09-04T07:15:22.810Z,60.38
2022-09-04T07:17:53.489Z,60.18
2022-09-04T07:20:55.616Z,60.73
2022-09-04T07:23:45.782Z,59.50
2022-09-04T07:26:26.095Z,58.41
2022-09-04T07:29:31.783Z,56.49
2022-09-04T07:32:15.526Z,55.81
2022-09-04T07:35:00.797Z,56.57
2022-09-04T07:37:39.999Z,55.58
2022-09-04T07:40:17.353Z,54.78
2022-09-04T07:43:13.999Z,55.47
2022-09-04T07:45:47.652Z,57.03
2022-09-04T07:48:18.475Z,53.97
2022-09-04T07:51:07.258Z,54.16
2022-09-04T07:53:43.948Z,54.38
2022-09-04T07:56:35.281Z,53.38
2022-09-04T07:59:25.336Z,51.53
2022-09-04T08:01:59.608Z,51.10
2022-09-04T08:05:01.732Z,51.72
2022-09-04T08:07:34.343Z,52.67
2022-09-04T08:10:23.680Z,51.71
2022-09-04T08:13:14.283Z,50.96
2022-09-04T08:16:06.308Z,52.87
2022-09-04T08:18:55.400Z,52.00
2022-09-04T08:21:32.301Z,50.73
2022-09-04T08:24:41.353Z,50.59
2022-09-04T08:27:09.451Z,49.88
2022-09-04T08:29:40.277Z,48.48
2022-09-04T08:32:28.569Z,48.25
2022-09-04T08:35:18.458Z,48.76
2022-09-04T08:38:20.877Z,48.50
2022-09-04T08:41:03.819Z,47.02
2022-09-04T08:43:57.061Z,47.36
2022-09-04T08:47:02.624Z,46.22
2022-09-04T08:49:54.116Z,47.00
2022-09-04T08:52:52.707Z,45.58
2022-09-04T08:55:35.668Z,46.58
2022-09-04T08:58:34.573Z,47.77
2022-09-04T09:01:08.426Z,47.34
2022-09-04T09:03:58.126Z,47.16
2022-09-04T09:06:42.188Z,46.38
2022-09-04T09:10:01.758Z,46.74
2022-09-04T09:12:54.511Z,45.82
2022-09-04T09:16:06.410Z,45.25
2022-09-04T09:18:41.518Z,44.58
2022-09-04T09:21:11.115Z,44.92
2022-09-04T09:24:14.295Z,43.81
2022-09-04T09:27:07.723Z,43.29
2022-09-04T09:30:08.056Z,42.30
2022-09-04T09:32:57.662Z,42.42
2022-09-04T09:36:16.215Z,41.89
2022-09-04T09:39:10.117Z,41.07
2022-09-04T09:41:46.879Z,41.57
2022-09-04T09:44:42.764Z,40.19
2022-09-04T09:47:19.226Z,40.58
2022-09-04T09:50:20.852Z,39.79
2022-09-04T09:53:16.636Z,39.29
2022-09-04T09:55:57.277Z,39.61
2022-09-04T09:58:33.875Z,40.15
2022-09-04T10:01:25.993Z,39.23
2022-09-04T10:04:12.388Z,39.23
2022-09-04T10:07:19.885Z,39.48
2022-09-04T10:10:06.433Z,38.99
2022-09-04T10:12:34.065Z,37.39
2022-09-04T10:15:02.001Z,38.07
2022-09-04T10:17:52.430Z,38.10
2022-09-04T10:20:42.257Z,38.38
2022-09-04T10:23:43.906Z,38.16
2022-09-04T10:26:39.634Z,39.71
2022-09-04T10:29:29.111Z,39.22
2022-09-04T10:32:31.897Z,38.37
2022-09-04T10:35:22.154Z,38.62
2022-09-04T10:38:09.023Z,39.69
2022-09-04T10:41:04.315Z,39.35
2022-09-04T10:43:51.970Z,39.68
2022-09-04T10:46:27.509Z,39.65
2022-09-04T10:49:17.327Z,39.16
2022-09-04T10:51:57.212Z,38.00
2022-09-04T10:54:35.329Z,38.53
2022-09-04T10:57:21.841Z,37.83
2022-09-04T11:00:06.748Z,38.83
2022-09-04T11:02:53.603Z,38.38
2022-09-04T11:05:22.334Z,39.16
2022-09-04T11:08:19.774Z,38.65
2022-09-04T11:11:19.312Z,40.10
2022-09-04T11:14:06.346Z,39.54
2022-09-04T11:16:57.260Z,39.63
2022-09-04T11:19:48.171Z,40.09
2022-09-04T11:22:35.049Z,41.62
2022-09-04T11:25:40.021Z,41.27
2022-09-04T11:28:17.155Z,40.60
2022-09-04T11:31:11.800Z,39.41
2022-09-04T11:34:15.122Z,40.99
2022-09-04T11:36:44.177Z,42.21
2022-09-04T11:39:52.922Z,40.50
2022-09-04T11:42:26.721Z,40.74
2022-09-04T11:45:30.386Z,41.66
2022-09-04T11:48:37.924Z,41.97
2022-09-04T11:51:28.879Z,41.72
2022-09-04T11:54:23.594Z,41.73
2022-09-04T11:57:07.649Z,40.72
2022-09-04T11:59:48.531Z,42.05
2022-09-04T12:02:25.411Z,41.99
2022-09-04T12:05:43.258Z,41.13
2022-09-04T12:08:42.048Z,41.59
2022-09-04T12:11:19.322Z,42.17
2022-09-04T12:14:02.859Z,42.09
2022-09-04T12:16:44.260Z,41.59
2022-09-04T12:19:39.979Z,41.24
2022-09-04T12:22:14.885Z,40.24
2022-09-04T12:25:06.778Z,40.38
2022-09-04T12:28:18.566Z,42.02
2022-09-04T12:30:58.697Z,41.31
2022-09-04T12:33:40.587Z,42.01
2022-09-04T12:36:38.418Z,40.81
2022-09-04T12:39:25.250Z,40.54
2022-09-04T12:42:01.480Z,40.71
2022-09-04T12:44:58.739Z,40.34
2022-09-04T12:47:43.295Z,41.22
2022-09-04T12:50:34.555Z,40.70
2022-09-04T12:53:32.282Z,42.37
2022-09-04T12:56:42.425Z,42.67
2022-09-04T12:59:19.746Z,43.03
2022-09-04T13:02:24.148Z,40.97
2022-09-04T13:05:07.213Z,41.29
2022-09-04T13:07:48.359Z,41.93
2022-09-04T13:10:23.711Z,42.25
2022-09-04T13:13:10.344Z,41.92
2022-09-04T13:15:45.899Z,41.01
2022-09-04T13:18:21.320Z,41.32
2022-09-04T13:20:55.042Z,40.48
2022-09-04T13:23:36.938Z,40.99
2022-09-04T13:26:20.969Z,39.77
2022-09-04T13:29:08.525Z,42.19
2022-09-04T13:31:59.485Z,40.76
2022-09-04T13:34:29.190Z,40.83
2022-09-04T13:37:21.314Z,40.08
2022-09-04T13:40:21.447Z,39.59
2022-09-04T13:43:03.481Z,40.32
2022-09-04T13:45:41.125Z,39.71
2022-09-04T13:48:37.584Z,41.20
2022-09-04T13:51:23.203Z,41.54
2022-09-04T13:54:02.785Z,41.52
2022-09-04T13:56:43.691Z,41.36
2022-09-04T13:59:16.259Z,40.87
2022-09-04T14:01:49.377Z,40.77
2022-09-04T14:04:33.546Z,40.25
2022-09-04T14:07:10.750Z,40.89
2022-09-04T14:09:48.492Z,41.31
2022-09-04T14:12:40.917Z,41.33
2022-09-04T14:15:24.271Z,41.57
2022-09-04T14:18:04.351Z,41.15
2022-09-04T14:20:42.602Z,41.34
2022-09-04T14:23:36.721Z,41.98
2022-09-04T14:26:10.824Z,42.17
2022-09-04T14:28:47.389Z,42.57
2022-09-04T14:31:40.515Z,42.25
2022-09-04T14:35:02.492Z,42.32
2022-09-04T14:37:49.191Z,43.33
2022-09-04T14:40:25.412Z,43.62
2022-09-04T14:42:58.374Z,42.97
2022-09-04T14:45:26.101Z,43.76
2022-09-04T14:48:00.083Z,42.95
2022-09-04T14:50:34.304Z,44.50
2022-09-04T14:53:08.660Z,43.43
2022-09-04T14:55:43.064Z,43.53
2022-09-04T14:58:23.436Z,44.52
2022-09-04T15:01:08.767Z,44.88
2022-09-04T15:03:56.424Z,45.13
2022-09-04T15:07:10.947Z,45.16
2022-09-04T15:09:44.769Z,44.56
2022-09-04T15:12:24.752Z,45.33
2022-09-04T15:15:07.265Z,45.49
2022-09-04T15:17:39.464Z,46.87
2022-09-04T15:20:17.917Z,46.10
2022-09-04T15:22:52.234Z,45.94
2022-09-04T15:25:59.753Z,46.10
2022-09-04T15:28:47.803Z,45.31
2022-09-04T15:31:20.367Z,45.81
2022-09-04T15:34:03.868Z,44.91
2022-09-04T15:36:32.792Z,44.29
2022-09-04T15:39:03.374Z,45.07
2022-09-04T15:41:47.526Z,45.22
2022-09-04T15:44:30.327Z,45.20
2022-09-04T15:47:39.196Z,44.65
2022-09-04T15:50:28.022Z,44.31
2022-09-04T15:53:10.044Z,45.38
2022-09-04T15:55:48.500Z,48.75
2022-09-04T15:58:19.931Z,49.80
2022-09-04T16:01:06.446Z,50.51
2022-09-04T16:04:03.322Z,51.19
2022-09-04T16:06:42.579Z,51.00
2022-09-04T16:09:23.456Z,51.64
2022-09-04T16:12:10.744Z,52.47
2022-09-04T16:14:44.742Z,51.83
2022-09-04T16:17:39.086Z,51.92
2022-09-04T16:20:10.407Z,52.17
2022-09-04T16:22:46.466Z,52.59
2022-09-04T16:25:29.899Z,52.43
2022-09-04T16:28:33.036Z,52.25
2022-09-04T16:31:12.922Z,52.35
2022-09-04T16:33:51.142Z,53.13
2022-09-04T16:36:40.802Z,53.05
2022-09-04T16:39:25.466Z,52.71
2022-09-04T16:42:12.494Z,53.74
2022-09-04T16:44:45.630Z,52.77
2022-09-04T16:47:32.176Z,53.38
2022-09-04T16:50:13.395Z,53.09
2022-09-04T16:52:41.377Z,52.70
2022-09-04T16:55:24.994Z,52.46
2022-09-04T16:58:40.189Z,53.41
2022-09-04T17:01:15.652Z,53.10
2022-09-04T17:04:13.231Z,53.23
2022-09-04T17:07:00.207Z,53.54
2022-09-04T17:09:46.410Z,53.13
2022-09-04T17:12:21.186Z,53.55
2022-09-04T17:15:00.951Z,54.10
2022-09-04T17:17:30.672Z,53.92
2022-09-04T17:20:12.388Z,54.63
2022-09-04T17:28:59.142Z,54.25
2022-09-04T17:29:17.724Z,54.40
2022-09-04T17:32:51.512Z,53.79
2022-09-04T17:40:32.917Z,53.55
2022-09-04T17:40:47.770Z,54.52
2022-09-04T17:41:38.210Z,54.56
2022-09-04T17:44:17.627Z,54.78
2022-09-04T17:47:27.596Z,54.13
2022-09-04T17:49:56.765Z,54.11
2022-09-04T17:52:27.115Z,54.04
2022-09-04T17:55:08.469Z,54.48
2022-09-04T17:57:51.237Z,54.92
2022-09-04T18:00:32.741Z,54.79
2022-09-04T18:03:24.813Z,55.48
2022-09-04T18:06:02.000Z,55.98
2022-09-04T18:08:30.310Z,54.79
2022-09-04T18:11:13.228Z,54.86
2022-09-04T18:14:00.906Z,55.12
2022-09-04T18:16:42.365Z,54.91
2022-09-04T18:19:38.314Z,54.85
2022-09-04T18:22:33.123Z,55.22
2022-09-04T18:25:16.459Z,54.66
2022-09-04T18:28:11.350Z,55.22
2022-09-04T18:37:09.838Z,54.99
2022-09-04T18:37:17.025Z,55.38
2022-09-04T18:37:17.998Z,55.71
2022-09-04T18:39:50.788Z,55.99
2022-09-04T18:50:28.032Z,56.17
2022-09-04T18:50:28.267Z,55.84
2022-09-04T18:50:36.449Z,56.17
2022-09-04T18:51:29.982Z,56.20
2022-09-04T18:54:08.782Z,56.36
2022-09-04T18:56:50.681Z,56.01
2022-09-04T18:59:28.294Z,55.84
2022-09-04T19:01:58.164Z,55.75
2022-09-04T19:04:35.983Z,56.10
2022-09-04T19:07:12.049Z,55.91
2022-09-04T19:10:08.234Z,56.03
2022-09-04T19:12:59.092Z,55.99
2022-09-04T19:15:55.863Z,55.63
2022-09-04T19:18:43.968Z,55.94
2022-09-04T19:21:26.019Z,56.52
2022-09-04T19:24:15.975Z,57.76
2022-09-04T19:26:55.317Z,57.62
2022-09-04T19:29:50.600Z,57.84
2022-09-04T19:32:27.648Z,58.07
2022-09-04T19:35:04.985Z,58.73
2022-09-04T19:40:16.584Z,59.59
2022-09-04T19:46:02.280Z,59.59
2022-09-04T19:46:13.883Z,59.37
2022-09-04T19:46:58.122Z,59.88
2022-09-04T19:52:25.474Z,59.39
2022-09-04T19:53:24.124Z,59.81
2022-09-04T19:56:02.802Z,60.47
2022-09-04T19:58:43.976Z,59.20
2022-09-04T20:01:16.357Z,60.55
2022-09-04T20:03:55.334Z,60.26
2022-09-04T20:06:34.610Z,61.19
2022-09-04T20:09:29.510Z,60.85
2022-09-04T20:12:21.753Z,59.39
2022-09-04T20:15:00.469Z,58.95
2022-09-04T20:17:45.145Z,59.07
2022-09-04T20:20:23.263Z,58.45
2022-09-04T20:23:02.253Z,58.57
2022-09-04T20:26:36.412Z,58.35
2022-09-04T20:30:01.961Z,57.86
2022-09-04T20:32:37.425Z,58.03
2022-09-04T20:35:32.609Z,58.36
2022-09-04T20:38:23.820Z,58.69
2022-09-04T20:41:19.948Z,58.98
2022-09-04T20:43:58.100Z,58.72
2022-09-04T20:50:56.428Z,58.29
2022-09-04T20:53:04.700Z,59.28
2022-09-04T20:53:26.316Z,58.12
2022-09-04T20:59:45.296Z,58.85
2022-09-04T21:03:18.784Z,58.80
2022-09-04T21:03:22.838Z,58.62
2022-09-04T21:06:16.577Z,58.59
2022-09-04T21:09:04.256Z,59.19
2022-09-04T21:11:42.023Z,58.68
2022-09-04T21:14:16.867Z,58.50
2022-09-04T21:17:33.557Z,58.45
2022-09-04T21:20:51.879Z,57.52
2022-09-04T21:24:07.983Z,59.57
2022-09-04T21:27:15.918Z,60.28
2022-09-04T21:30:02.740Z,60.20
2022-09-04T21:33:24.622Z,59.00
2022-09-04T21:36:25.365Z,60.21
2022-09-04T21:38:56.937Z,60.47
2022-09-04T21:41:50.946Z,61.73
2022-09-04T21:44:43.590Z,61.41
2022-09-04T21:47:26.383Z,62.71
2022-09-04T21:50:23.050Z,62.12
2022-09-04T21:53:16.405Z,63.08
2022-09-04T22:00:17.454Z,62.16
2022-09-04T22:02:35.904Z,61.60
2022-09-04T22:02:37.502Z,62.27
2022-09-04T22:05:13.222Z,61.01
2022-09-04T22:12:11.751Z,60.43
2022-09-04T22:13:39.582Z,60.64
2022-09-04T22:14:38.068Z,60.91
2022-09-04T22:17:18.782Z,61.43
2022-09-04T22:20:25.165Z,61.03
2022-09-04T22:23:12.793Z,61.09
2022-09-04T22:26:09.185Z,60.74
2022-09-04T22:29:23.788Z,60.85
2022-09-04T22:32:33.678Z,60.61
2022-09-04T22:35:36.088Z,60.40
2022-09-04T22:38:16.467Z,60.33
2022-09-04T22:41:00.446Z,59.52
2022-09-04T22:43:29.647Z,59.67
2022-09-04T22:46:33.341Z,59.06
2022-09-04T22:49:19.655Z,59.17
2022-09-04T22:51:59.426Z,60.61
2022-09-04T22:55:13.082Z,60.50
2022-09-04T22:57:51.122Z,61.39
2022-09-04T23:00:23.428Z,61.23
2022-09-04T23:03:09.830Z,61.31
2022-09-04T23:08:03.021Z,62.09
2022-09-04T23:13:49.325Z,61.49
2022-09-04T23:13:59.443Z,62.03
2022-09-04T23:15:21.222Z,59.67
2022-09-04T23:23:05.138Z,59.78
2022-09-04T23:26:33.703Z,59.18
2022-09-04T23:26:47.560Z,59.08
2022-09-04T23:27:28.397Z,58.71
2022-09-04T23:30:04.386Z,60.53
2022-09-04T23:32:44.361Z,59.25
2022-09-04T23:35:27.214Z,59.73
2022-09-04T23:38:04.462Z,59.52
2022-09-04T23:40:42.118Z,59.68
2022-09-04T23:43:19.022Z,59.14
2022-09-04T23:46:08.249Z,60.86
2022-09-04T23:48:45.147Z,61.59
2022-09-04T23:51:21.421Z,62.70
2022-09-04T23:54:24.612Z,62.97
2022-09-04T23:57:08.517Z,62.44
2022-09-04T23:59:56.692Z,61.17
